Página principal
METAR-TAF:

METAR-TAF

Aeroportos :

Aeroporto Internacional Osvaldo Vieira

Bissau, Guiné-Bissau

latitude: 11-53N, longitude: 015-39W, altura: 39 m

Observação actual do tempo

O boletim foi feito há 1 hora e 48 minutos, às 03:00 UTC
Vento calmo
Temperatura 25°C
Humidade 94%
Pressão 1011 hPa
Visibilidade: 6000 m

METAR: GGOV 230300Z 00000KT 6000 NSC 25/24 Q1011 NOSIG

Hora: 04:48 (04:48 UTC)

Previsão

O boletim foi feito há 5 horas e 48 minutos, às 23:00 UTC
Previsão válida de 23 às 00 UTC a 23 às 24 UTC
Vento 6 kt de oes-sudoeste
Visibilidade: 7000 m
Nuvens dispersasa uma altura de 1200 ft
Probabilidade 30% :
Temporariamente
de 23 às 06 UTC a 23 às 10 UTC
Visibilidade: 4000 m
Nuvens fragmentadasa uma altura de 1000 ft
Poucas nuvensa uma altura de 1800 ft, Cumulonimbus.
trovoada, chuva,

TAF: GGOV 222300Z 2300/2324 24006KT 7000 SCT012 PROB30 TEMPO 2306/2310 4000 TSRA BKN010 FEW018CB

Observações e previsões do tempo de mais de 4000 aeroportos (mensagens METAR e TAF).

As estações disponíveis são os pontos amarelos e vermelhos sobre o mapa.

Mova o rato sobre o mapa para ver o nome da estação.

Depois clique no ponto para visualizar as observações e previsões meteorológicas.

Para alterar o mapa : clique nos botões verdes com uma cruz preta para aumentar o zoom; no botão verde com uma pitada de zoom; ou nas setas verdes para mapas adjacentes.


METAR-TAF: